AirNav   Pilot Hours Calculator
 
 1391 users online  

F01 Quanah Municipal Airport
Quanah, Texas, USA

GOING TO QUANAH?


FAA INFORMATION EFFECTIVE 20 MAY 2021

Location

FAA Identifier: F01
Lat/Long: 34-16-37.5990N 099-45-34.8540W
34-16.626650N 099-45.580900W
34.2771108,-99.7596817
(estimated)
Elevation: 1603.2 ft. / 488.7 m (surveyed)
Variation: 08E (1985)
From city: 2 miles SW of QUANAH, TX
Time zone: UTC -5 (UTC -6 during Standard Time)
Zip code: 79252

Airport Operations

Airport use: Open to the public
Activation date: 04/1948
Control tower: no
ARTCC: FORT WORTH CENTER
FSS: FORT WORTH FLIGHT SERVICE STATION
NOTAMs facility: FTW (NOTAM-D service available)
Attendance: DAYLIGHT HOURS
FOR FUEL OR MAINT NGT CALL 940-839-1588.
Wind indicator: lighted
Segmented circle: yes
Lights: MIRL RWY 18/36 PRESET LOW INTST; TO INCR INTST ACTVT - CTAF.
Beacon: white-green (lighted land airport)
Operates sunset to sunrise.

Airport Communications

CTAF/UNICOM: 122.7

Nearby radio navigation aids

VOR radial/distance  VOR name  Freq  Var
CDSr092/26.8CHILDRESS VORTAC117.0010E
LTSr221/33.5ALTUS VORTAC109.8005E

Airport Services

Fuel available: 100LL
Parking: hangars and tiedowns
Airframe service: MAJOR
Powerplant service: MAJOR
Bottled oxygen: NONE
Bulk oxygen: NONE

Runway Information

Runway 18/36

Dimensions: 4452 x 60 ft. / 1357 x 18 m
Surface: asphalt, in good condition
Weight bearing capacity: 
Single wheel: 12.5
Runway edge lights: medium intensity
NONSTD MIRL LENSES.
Runway edge markings: MARKINGS FADED
RUNWAY 18  RUNWAY 36
Latitude: 34-17.042333N34-16.308500N
Longitude: 099-45.554667W099-45.573500W
Elevation: 1591.1 ft.1601.5 ft.
Traffic pattern: leftleft
Runway heading: 173 magnetic, 181 true353 magnetic, 001 true
Markings: nonprecision, in poor conditionnonprecision, in poor condition
Visual slope indicator: 2-light PAPI on left (3.00 degrees glide path)
Touchdown point: yes, no lightsyes, no lights
Obstructions: 15 ft. road, 550 ft. from runway, 23:1 slope to clearnone

Runway 11/29

Dimensions: 2270 x 70 ft. / 692 x 21 m
Surface: turf, in good condition
RUNWAY 11  RUNWAY 29
Latitude: 34-16.571317N34-16.388883N
Longitude: 099-45.797350W099-45.403700W
Elevation: 1602.0 ft.1599.0 ft.
Traffic pattern: leftleft
Runway heading: 111 magnetic, 119 true291 magnetic, 299 true
Displaced threshold: no360 ft.
DSPLCD THR UNMARKED.
Markings: none, in fair conditionnone, in fair condition
Touchdown point: yes, no lightsyes, no lights
Obstructions: none15 ft. road, 135 ft. from runway, 9:1 slope to clear
APCH RATIO 33:1 TO +15 FT ROAD AT 495 FT ACRS APCH AT DSPLCD THR.

Runway 6/24

Dimensions: 2268 x 70 ft. / 691 x 21 m
Surface: turf, in good condition
RUNWAY 6  RUNWAY 24
Latitude: 34-16.596300N34-16.758767N
Longitude: 099-45.797350W099-45.391183W
Elevation: 1602.0 ft.1594.0 ft.
Traffic pattern: leftleft
Runway heading: 056 magnetic, 064 true236 magnetic, 244 true
Displaced threshold: no500 ft.
DSPLCD THR UNMARKED.
Markings: none, in fair conditionnone, in fair condition
Touchdown point: yes, no lightsyes, no lights
Obstructions: none24 ft. pole, 150 ft. from runway, 150 ft. left of centerline, 6:1 slope to clear
APCH RATIO 34:1 TO +15 FT ROAD AT 510 FT ACRS APCH AT DSPLCD THR.

Airport Ownership and Management from official FAA records

Ownership: Publicly-owned
Owner: CITY OF QUANAH
P.O. BOX 629
QUANAH, TX 79252
Phone 940-663-5336
Manager: PAULA WILSON
P.O. BOX 629
QUANAH, TX 79252
Phone 970-219-6631

Airport Operational Statistics

Aircraft based on the field: 12
Single engine airplanes: 12
    
Aircraft operations: avg 84/week *
75% local general aviation
25% transient general aviation
* for 12-month period ending 16 May 2020

Additional Remarks

WID OF TURF RWYS BASED ON THE AREA MOWED AND MNTND.
FOR CD CTC FORT WORTH ARTCC AT 817-858-7584.

Instrument Procedures

There are no published instrument procedures at F01.

Some nearby airports with instrument procedures:

F05 - Wilbarger County Airport (24 nm E)
O35 - Hollis Municipal Airport (27 nm N)
KCDS - Childress Municipal Airport (28 nm W)
3F6 - Dan E Richards Municipal Airport (30 nm SW)
KAXS - Altus/Quartz Mountain Regional Airport (33 nm NE)
 
Loc | Ops | Rwys | IFR | FBO | Links
Com | Nav | Svcs | Stats | Notes

AirBoss

 
Area around F01 (Quanah Municipal Airport)
 
Road maps at: MapQuest Bing Google
 
Aerial photo
WARNING: Photo may not be current or correct
Aerial photo of F01 (Quanah Municipal Airport)
Photo by Rick Walker
Photo taken 12-Apr-2020
looking west.

Do you have a better or more recent aerial photo of Quanah Municipal Airport that you would like to share? If so, please send us your photo.

 
Sectional chart

 
Airport distance calculator
Flying to Quanah Municipal Airport? Find the distance to fly.

From to F01

Sunrise and sunset
Times for 15-Jun-2021
 Local
(UTC-5)
 Zulu
(UTC)
Morning civil twilight05:5810:58
Sunrise06:2811:28
Sunset20:5101:51
Evening civil twilight21:2102:21

Current date and time
Zulu (UTC)  15-Jun-2021 14:05:22
Local (UTC-5)  15-Jun-2021 09:05:22
 
METAR
KF05 
24nm E 
151355Z AUTO 00000KT 10SM CLR 27/21 A3011 RMK AO2 T02710213
KCDS 
28nm W 
151353Z AUTO 00000KT 10SM CLR 28/18 A3015 RMK AO2 SLP178 T02830178
KAXS 
33nm NE 
151355Z AUTO 16003KT 10SM CLR 28/20 A3014 RMK AO2 T02750204
KLTS 
34nm NE 
151356Z AUTO 13004KT 10SM CLR 27/21 A3010 RMK AO2 SLP177 T02650212 $
KFDR 
39nm E 
151353Z AUTO 09003KT 10SM CLR 27/22 A3009 RMK AO2 SLP168 T02670217
TAF
KCDS 
28nm W 
151120Z 1512/1612 VRB04KT P6SM SKC FM160000 15008KT P6SM SKC
KLTS 
34nm NE 
150900Z 1509/1615 VRB06KT 9999 SKC QNH2997INS TX37/1521Z TN20/1512Z
NOTAMs
Click for the latest NOTAMs
NOTAMs are issued by the DoD/FAA and will open in a separate window not controlled by AirNav.

 

 
 

FBO, Fuel Providers, and Aircraft Ground Support

  
 Business Name 
 
 Contact 
 
 Services / Description 
 
Fuel Prices
 
Comments
  
Quanah Municipal Airport 940-663-5336
[web site]
[email]
Airport management, Aviation fuel, Aircraft parking (ramp or tiedown), Hangar leasing / sales, Passenger terminal and lounge, Aircraft rental, Aircraft maintenance, ...

More info about Quanah Municipal Airport
EPIC
100LL
SS $4.50 
 Updated 11-Jun-2021
 
   write
SS=Self service
Update Fuel Prices
 

Would you like to see your business listed on this page?

 If your business provides an interesting product or service to pilots, flight crews, aircraft, or users of the Quanah Municipal Airport, you should consider listing it here.  To start the listing process, click on the button below
 
Add a business
 

Other Pages about Quanah Municipal Airport

www.quanahnet.com/...
 
Update a link
 
Copyright © AirNav, LLC. All rights reserved. Privacy Policy  Contact